sensor_id;sensor_type;location;lat;lon;timestamp;pressure;altitude;pressure_sealevel;temperature;humidity
64835;BME280;51293;59.296;18.006;2023-02-03T00:02:01;101107.91;;;-8.39;98.61
64835;BME280;51293;59.296;18.006;2023-02-03T00:04:26;101109.50;;;-8.36;98.54
64835;BME280;51293;59.296;18.006;2023-02-03T00:06:52;101110.00;;;-8.44;98.46
64835;BME280;51293;59.296;18.006;2023-02-03T00:09:18;101099.69;;;-8.47;98.68
64835;BME280;51293;59.296;18.006;2023-02-03T00:11:43;101096.97;;;-8.45;98.84
64835;BME280;51293;59.296;18.006;2023-02-03T00:14:09;101086.44;;;-8.45;98.95
64835;BME280;51293;59.296;18.006;2023-02-03T00:16:34;101074.25;;;-8.46;98.87
64835;BME280;51293;59.296;18.006;2023-02-03T00:19:00;101071.84;;;-8.50;98.96
64835;BME280;51293;59.296;18.006;2023-02-03T00:21:25;101065.84;;;-8.52;99.07
64835;BME280;51293;59.296;18.006;2023-02-03T00:23:51;101062.38;;;-8.52;99.05
64835;BME280;51293;59.296;18.006;2023-02-03T00:26:17;101066.03;;;-8.55;99.12
64835;BME280;51293;59.296;18.006;2023-02-03T00:28:42;101059.09;;;-8.56;99.12
64835;BME280;51293;59.296;18.006;2023-02-03T00:31:15;101051.97;;;-8.54;99.23
64835;BME280;51293;59.296;18.006;2023-02-03T00:33:41;101059.31;;;-8.59;99.36
64835;BME280;51293;59.296;18.006;2023-02-03T00:36:07;101041.88;;;-8.60;99.27
64835;BME280;51293;59.296;18.006;2023-02-03T00:38:32;101036.69;;;-8.61;99.36
64835;BME280;51293;59.296;18.006;2023-02-03T00:40:58;101036.06;;;-8.65;99.11
64835;BME280;51293;59.296;18.006;2023-02-03T00:43:23;101030.09;;;-8.67;99.15
64835;BME280;51293;59.296;18.006;2023-02-03T00:45:49;101028.59;;;-8.71;99.24
64835;BME280;51293;59.296;18.006;2023-02-03T00:48:14;101029.53;;;-8.72;99.16
64835;BME280;51293;59.296;18.006;2023-02-03T00:50:39;101017.44;;;-8.74;99.07
64835;BME280;51293;59.296;18.006;2023-02-03T00:53:05;101016.72;;;-8.76;99.03
64835;BME280;51293;59.296;18.006;2023-02-03T00:55:31;101016.16;;;-8.82;98.85
64835;BME280;51293;59.296;18.006;2023-02-03T00:57:56;101009.34;;;-8.84;98.93
64835;BME280;51293;59.296;18.006;2023-02-03T01:00:22;101006.16;;;-8.89;98.61
64835;BME280;51293;59.296;18.006;2023-02-03T01:02:47;100993.97;;;-8.90;98.72
64835;BME280;51293;59.296;18.006;2023-02-03T01:05:13;100992.41;;;-8.93;98.46
64835;BME280;51293;59.296;18.006;2023-02-03T01:07:38;100999.44;;;-8.93;98.36
64835;BME280;51293;59.296;18.006;2023-02-03T01:10:04;101004.75;;;-8.95;98.39
64835;BME280;51293;59.296;18.006;2023-02-03T01:12:31;100998.66;;;-8.95;98.35
64835;BME280;51293;59.296;18.006;2023-02-03T01:14:57;100990.06;;;-8.97;98.39
64835;BME280;51293;59.296;18.006;2023-02-03T01:17:23;100992.69;;;-8.97;98.38
64835;BME280;51293;59.296;18.006;2023-02-03T01:19:50;100990.91;;;-8.97;98.41
64835;BME280;51293;59.296;18.006;2023-02-03T01:22:15;100992.56;;;-8.96;98.47
64835;BME280;51293;59.296;18.006;2023-02-03T01:24:41;100995.31;;;-8.97;98.32
64835;BME280;51293;59.296;18.006;2023-02-03T01:27:06;100985.75;;;-8.98;98.20
64835;BME280;51293;59.296;18.006;2023-02-03T01:29:32;100987.91;;;-9.05;97.85
64835;BME280;51293;59.296;18.006;2023-02-03T01:31:57;100985.41;;;-9.07;97.95
64835;BME280;51293;59.296;18.006;2023-02-03T01:34:23;100979.41;;;-9.09;97.73
64835;BME280;51293;59.296;18.006;2023-02-03T01:36:48;100976.69;;;-9.07;97.58
64835;BME280;51293;59.296;18.006;2023-02-03T01:39:13;100979.31;;;-9.07;97.18
64835;BME280;51293;59.296;18.006;2023-02-03T01:41:40;100982.69;;;-9.05;96.69
64835;BME280;51293;59.296;18.006;2023-02-03T01:44:41;100971.09;;;-9.15;95.91
64835;BME280;51293;59.296;18.006;2023-02-03T01:50:22;100959.09;;;-9.19;94.88
64835;BME280;51293;59.296;18.006;2023-02-03T01:52:57;100960.53;;;-9.28;94.95
64835;BME280;51293;59.296;18.006;2023-02-03T01:55:45;100955.97;;;-9.39;95.06
64835;BME280;51293;59.296;18.006;2023-02-03T01:58:21;100953.00;;;-9.47;95.15
64835;BME280;51293;59.296;18.006;2023-02-03T02:00:49;100956.66;;;-9.49;95.27
64835;BME280;51293;59.296;18.006;2023-02-03T02:03:15;100954.41;;;-9.55;95.82
64835;BME280;51293;59.296;18.006;2023-02-03T02:05:47;100956.31;;;-9.57;95.97
64835;BME280;51293;59.296;18.006;2023-02-03T02:08:14;100950.75;;;-9.53;96.08
64835;BME280;51293;59.296;18.006;2023-02-03T02:10:42;100960.28;;;-9.52;96.22
64835;BME280;51293;59.296;18.006;2023-02-03T02:13:09;100957.25;;;-9.58;96.36
64835;BME280;51293;59.296;18.006;2023-02-03T02:21:21;100943.34;;;-9.60;97.19
64835;BME280;51293;59.296;18.006;2023-02-03T02:32:53;100925.22;;;-9.64;97.47
64835;BME280;51293;59.296;18.006;2023-02-03T02:36:06;100925.31;;;-9.65;97.47
64835;BME280;51293;59.296;18.006;2023-02-03T02:41:07;100921.84;;;-9.66;97.62
64835;BME280;51293;59.296;18.006;2023-02-03T02:46:23;100914.25;;;-9.56;97.20
64835;BME280;51293;59.296;18.006;2023-02-03T02:51:28;100912.31;;;-9.67;96.89
64835;BME280;51293;59.296;18.006;2023-02-03T02:53:59;100900.97;;;-9.67;97.05
64835;BME280;51293;59.296;18.006;2023-02-03T02:56:27;100901.88;;;-9.68;96.89
64835;BME280;51293;59.296;18.006;2023-02-03T02:58:56;100899.28;;;-9.68;96.99
64835;BME280;51293;59.296;18.006;2023-02-03T03:01:22;100901.81;;;-9.67;96.96
64835;BME280;51293;59.296;18.006;2023-02-03T03:03:47;100890.66;;;-9.70;96.91
64835;BME280;51293;59.296;18.006;2023-02-03T03:06:31;100894.97;;;-9.69;96.68
64835;BME280;51293;59.296;18.006;2023-02-03T03:09:03;100893.28;;;-9.70;96.66
64835;BME280;51293;59.296;18.006;2023-02-03T03:11:34;100889.94;;;-9.72;96.31
64835;BME280;51293;59.296;18.006;2023-02-03T03:14:01;100889.19;;;-9.74;96.40
64835;BME280;51293;59.296;18.006;2023-02-03T03:16:37;100887.59;;;-9.77;96.38
64835;BME280;51293;59.296;18.006;2023-02-03T03:19:15;100886.00;;;-9.79;96.25
64835;BME280;51293;59.296;18.006;2023-02-03T03:21:47;100872.16;;;-9.81;96.06
64835;BME280;51293;59.296;18.006;2023-02-03T03:24:17;100878.34;;;-9.82;96.04
64835;BME280;51293;59.296;18.006;2023-02-03T03:27:22;100865.97;;;-9.80;95.93
64835;BME280;51293;59.296;18.006;2023-02-03T03:29:52;100872.16;;;-9.81;96.05
64835;BME280;51293;59.296;18.006;2023-02-03T03:32:19;100868.69;;;-9.82;95.89
64835;BME280;51293;59.296;18.006;2023-02-03T03:34:45;100862.53;;;-9.81;95.99
64835;BME280;51293;59.296;18.006;2023-02-03T03:39:57;100858.97;;;-9.80;96.07
64835;BME280;51293;59.296;18.006;2023-02-03T03:45:18;100853.50;;;-9.77;95.95
64835;BME280;51293;59.296;18.006;2023-02-03T03:50:24;100844.72;;;-9.76;95.77
64835;BME280;51293;59.296;18.006;2023-02-03T03:52:53;100848.09;;;-9.74;95.73
64835;BME280;51293;59.296;18.006;2023-02-03T03:55:20;100853.34;;;-9.74;95.70
64835;BME280;51293;59.296;18.006;2023-02-03T03:57:54;100838.63;;;-9.76;95.50
64835;BME280;51293;59.296;18.006;2023-02-03T04:00:23;100857.38;;;-9.82;95.43
64835;BME280;51293;59.296;18.006;2023-02-03T04:02:53;100841.44;;;-9.79;95.32
64835;BME280;51293;59.296;18.006;2023-02-03T04:05:21;100853.81;;;-9.81;95.21
64835;BME280;51293;59.296;18.006;2023-02-03T04:07:47;100852.31;;;-9.85;95.46
64835;BME280;51293;59.296;18.006;2023-02-03T04:10:24;100847.84;;;-9.83;95.32
64835;BME280;51293;59.296;18.006;2023-02-03T04:12:51;100848.56;;;-9.81;95.30
64835;BME280;51293;59.296;18.006;2023-02-03T04:15:16;100850.34;;;-9.82;95.20
64835;BME280;51293;59.296;18.006;2023-02-03T04:17:42;100836.41;;;-9.82;95.06
64835;BME280;51293;59.296;18.006;2023-02-03T04:20:08;100832.94;;;-9.83;95.26
64835;BME280;51293;59.296;18.006;2023-02-03T04:22:33;100827.72;;;-9.83;95.26
64835;BME280;51293;59.296;18.006;2023-02-03T04:24:59;100834.63;;;-9.82;95.35
64835;BME280;51293;59.296;18.006;2023-02-03T04:27:25;100828.56;;;-9.82;95.37
64835;BME280;51293;59.296;18.006;2023-02-03T04:29:51;100833.78;;;-9.82;95.34
64835;BME280;51293;59.296;18.006;2023-02-03T04:32:16;100834.72;;;-9.83;95.63
64835;BME280;51293;59.296;18.006;2023-02-03T04:34:42;100842.59;;;-9.83;95.91
64835;BME280;51293;59.296;18.006;2023-02-03T04:37:07;100833.69;;;-9.81;95.69
64835;BME280;51293;59.296;18.006;2023-02-03T04:39:33;100822.38;;;-9.81;95.70
64835;BME280;51293;59.296;18.006;2023-02-03T04:41:58;100826.75;;;-9.82;95.83
64835;BME280;51293;59.296;18.006;2023-02-03T04:44:23;100824.88;;;-9.80;95.58
64835;BME280;51293;59.296;18.006;2023-02-03T04:46:49;100817.13;;;-9.81;95.70
64835;BME280;51293;59.296;18.006;2023-02-03T04:49:14;100811.78;;;-9.80;95.55
64835;BME280;51293;59.296;18.006;2023-02-03T04:51:41;100811.16;;;-9.83;95.51
64835;BME280;51293;59.296;18.006;2023-02-03T04:54:08;100814.72;;;-9.84;95.38
64835;BME280;51293;59.296;18.006;2023-02-03T04:56:33;100808.59;;;-9.85;95.57
64835;BME280;51293;59.296;18.006;2023-02-03T04:58:59;100803.28;;;-9.83;95.58
64835;BME280;51293;59.296;18.006;2023-02-03T05:01:24;100801.50;;;-9.83;95.59
64835;BME280;51293;59.296;18.006;2023-02-03T05:03:50;100795.41;;;-9.83;95.33
64835;BME280;51293;59.296;18.006;2023-02-03T05:06:15;100782.22;;;-9.82;95.53
64835;BME280;51293;59.296;18.006;2023-02-03T05:08:40;100790.91;;;-9.81;95.41
64835;BME280;51293;59.296;18.006;2023-02-03T05:11:06;100780.44;;;-9.81;95.34
64835;BME280;51293;59.296;18.006;2023-02-03T05:13:31;100768.16;;;-9.81;95.33
64835;BME280;51293;59.296;18.006;2023-02-03T05:15:56;100779.59;;;-9.82;95.34
64835;BME280;51293;59.296;18.006;2023-02-03T05:18:22;100771.81;;;-9.83;95.26
64835;BME280;51293;59.296;18.006;2023-02-03T05:20:47;100773.63;;;-9.84;95.15
64835;BME280;51293;59.296;18.006;2023-02-03T05:23:12;100767.53;;;-9.84;94.89
64835;BME280;51293;59.296;18.006;2023-02-03T05:25:38;100759.94;;;-9.89;95.09
64835;BME280;51293;59.296;18.006;2023-02-03T05:28:03;100760.91;;;-9.90;95.01
64835;BME280;51293;59.296;18.006;2023-02-03T05:30:28;100750.41;;;-9.90;94.80
64835;BME280;51293;59.296;18.006;2023-02-03T05:32:54;100759.94;;;-9.89;94.83
64835;BME280;51293;59.296;18.006;2023-02-03T05:35:19;100757.13;;;-9.86;94.90
64835;BME280;51293;59.296;18.006;2023-02-03T05:37:45;100752.66;;;-9.84;95.19
64835;BME280;51293;59.296;18.006;2023-02-03T05:40:12;100748.13;;;-9.82;95.37
64835;BME280;51293;59.296;18.006;2023-02-03T05:42:56;100745.31;;;-9.79;95.21
64835;BME280;51293;59.296;18.006;2023-02-03T05:45:21;100750.75;;;-9.82;95.24
64835;BME280;51293;59.296;18.006;2023-02-03T05:47:47;100739.31;;;-9.81;95.33
64835;BME280;51293;59.296;18.006;2023-02-03T05:50:12;100739.78;;;-9.74;95.27
64835;BME280;51293;59.296;18.006;2023-02-03T05:52:38;100736.19;;;-9.73;95.31
64835;BME280;51293;59.296;18.006;2023-02-03T05:55:03;100742.38;;;-9.74;95.39
64835;BME280;51293;59.296;18.006;2023-02-03T05:57:29;100732.75;;;-9.74;95.46
64835;BME280;51293;59.296;18.006;2023-02-03T05:59:54;100723.09;;;-9.73;95.73
64835;BME280;51293;59.296;18.006;2023-02-03T06:02:19;100719.53;;;-9.72;96.19
64835;BME280;51293;59.296;18.006;2023-02-03T06:04:45;100725.50;;;-9.70;96.08
64835;BME280;51293;59.296;18.006;2023-02-03T06:07:10;100716.81;;;-9.71;96.20
64835;BME280;51293;59.296;18.006;2023-02-03T06:09:35;100720.25;;;-9.70;96.35
64835;BME280;51293;59.296;18.006;2023-02-03T06:12:01;100713.06;;;-9.67;96.56
64835;BME280;51293;59.296;18.006;2023-02-03T06:14:26;100710.22;;;-9.64;96.54
64835;BME280;51293;59.296;18.006;2023-02-03T06:16:52;100710.09;;;-9.62;96.71
64835;BME280;51293;59.296;18.006;2023-02-03T06:19:18;100716.09;;;-9.60;96.67
64835;BME280;51293;59.296;18.006;2023-02-03T06:21:43;100716.09;;;-9.60;96.59
64835;BME280;51293;59.296;18.006;2023-02-03T06:24:09;100717.28;;;-9.51;96.69
64835;BME280;51293;59.296;18.006;2023-02-03T06:26:35;100724.59;;;-9.56;96.65
64835;BME280;51293;59.296;18.006;2023-02-03T06:29:00;100729.44;;;-9.50;96.58
64835;BME280;51293;59.296;18.006;2023-02-03T06:31:26;100721.59;;;-9.50;96.68
64835;BME280;51293;59.296;18.006;2023-02-03T06:33:51;100727.56;;;-9.48;96.69
64835;BME280;51293;59.296;18.006;2023-02-03T06:36:17;100731.84;;;-9.47;96.92
64835;BME280;51293;59.296;18.006;2023-02-03T06:38:42;100730.78;;;-9.45;96.87
64835;BME280;51293;59.296;18.006;2023-02-03T06:41:08;100736.81;;;-9.43;97.15
64835;BME280;51293;59.296;18.006;2023-02-03T06:43:33;100732.19;;;-9.39;97.23
64835;BME280;51293;59.296;18.006;2023-02-03T06:45:59;100722.31;;;-9.36;97.77
64835;BME280;51293;59.296;18.006;2023-02-03T06:48:25;100728.19;;;-9.32;98.06
64835;BME280;51293;59.296;18.006;2023-02-03T06:50:50;100731.34;;;-9.27;98.29
64835;BME280;51293;59.296;18.006;2023-02-03T06:53:16;100727.56;;;-9.23;99.01
64835;BME280;51293;59.296;18.006;2023-02-03T06:55:41;100733.44;;;-9.19;98.92
64835;BME280;51293;59.296;18.006;2023-02-03T06:58:07;100733.44;;;-9.19;98.97
64835;BME280;51293;59.296;18.006;2023-02-03T07:00:33;100730.94;;;-9.21;99.32
64835;BME280;51293;59.296;18.006;2023-02-03T07:02:59;100743.75;;;-9.16;99.50
64835;BME280;51293;59.296;18.006;2023-02-03T07:05:25;100747.31;;;-9.17;99.53
64835;BME280;51293;59.296;18.006;2023-02-03T07:07:52;100744.38;;;-9.13;99.70
64835;BME280;51293;59.296;18.006;2023-02-03T07:10:18;100752.06;;;-9.10;99.76
64835;BME280;51293;59.296;18.006;2023-02-03T07:12:43;100741.56;;;-9.10;100.00
64835;BME280;51293;59.296;18.006;2023-02-03T07:15:10;100752.78;;;-9.08;100.00
64835;BME280;51293;59.296;18.006;2023-02-03T07:17:36;100755.19;;;-9.04;100.00
64835;BME280;51293;59.296;18.006;2023-02-03T07:20:01;100752.38;;;-9.01;100.00
64835;BME280;51293;59.296;18.006;2023-02-03T07:22:27;100750.25;;;-8.96;100.00
64835;BME280;51293;59.296;18.006;2023-02-03T07:24:52;100751.41;;;-8.88;100.00
64835;BME280;51293;59.296;18.006;2023-02-03T07:27:18;100743.22;;;-8.83;100.00
64835;BME280;51293;59.296;18.006;2023-02-03T07:29:44;100744.56;;;-8.78;100.00
64835;BME280;51293;59.296;18.006;2023-02-03T07:32:10;100740.47;;;-8.69;100.00
64835;BME280;51293;59.296;18.006;2023-02-03T07:34:35;100746.88;;;-8.60;100.00
64835;BME280;51293;59.296;18.006;2023-02-03T07:37:01;100736.56;;;-8.51;100.00
64835;BME280;51293;59.296;18.006;2023-02-03T07:39:26;100743.69;;;-8.40;100.00
64835;BME280;51293;59.296;18.006;2023-02-03T07:41:52;100741.09;;;-8.29;100.00
64835;BME280;51293;59.296;18.006;2023-02-03T07:44:17;100735.09;;;-8.18;100.00
64835;BME280;51293;59.296;18.006;2023-02-03T07:46:42;100733.47;;;-8.08;100.00
64835;BME280;51293;59.296;18.006;2023-02-03T07:49:13;100740.25;;;-7.93;100.00
64835;BME280;51293;59.296;18.006;2023-02-03T07:51:39;100726.91;;;-7.78;99.45
64835;BME280;51293;59.296;18.006;2023-02-03T07:54:04;100732.44;;;-7.70;99.08
64835;BME280;51293;59.296;18.006;2023-02-03T07:56:30;100737.63;;;-7.57;98.86
64835;BME280;51293;59.296;18.006;2023-02-03T07:58:57;100739.34;;;-7.45;98.68
64835;BME280;51293;59.296;18.006;2023-02-03T08:01:23;100740.44;;;-7.37;98.24
64835;BME280;51293;59.296;18.006;2023-02-03T08:03:48;100746.47;;;-7.23;98.07
64835;BME280;51293;59.296;18.006;2023-02-03T08:06:14;100749.09;;;-7.12;97.90
64835;BME280;51293;59.296;18.006;2023-02-03T08:08:40;100744.22;;;-7.05;97.63
64835;BME280;51293;59.296;18.006;2023-02-03T08:11:06;100746.41;;;-6.99;97.68
64835;BME280;51293;59.296;18.006;2023-02-03T08:13:31;100742.69;;;-6.97;97.90
64835;BME280;51293;59.296;18.006;2023-02-03T08:15:57;100743.19;;;-6.92;97.88
64835;BME280;51293;59.296;18.006;2023-02-03T08:18:22;100733.84;;;-6.85;98.23
64835;BME280;51293;59.296;18.006;2023-02-03T08:20:48;100748.22;;;-6.77;98.10
64835;BME280;51293;59.296;18.006;2023-02-03T08:23:13;100738.84;;;-6.70;98.28
64835;BME280;51293;59.296;18.006;2023-02-03T08:25:39;100742.09;;;-6.56;98.63
64835;BME280;51293;59.296;18.006;2023-02-03T08:28:04;100746.88;;;-6.38;98.56
64835;BME280;51293;59.296;18.006;2023-02-03T08:30:29;100749.88;;;-6.20;98.38
64835;BME280;51293;59.296;18.006;2023-02-03T08:32:56;100743.75;;;-6.10;98.08
64835;BME280;51293;59.296;18.006;2023-02-03T08:35:21;100748.34;;;-5.91;98.07
64835;BME280;51293;59.296;18.006;2023-02-03T08:37:47;100738.69;;;-5.70;98.06
64835;BME280;51293;59.296;18.006;2023-02-03T08:40:13;100740.50;;;-5.49;97.23
64835;BME280;51293;59.296;18.006;2023-02-03T08:42:38;100746.66;;;-5.28;96.78
64835;BME280;51293;59.296;18.006;2023-02-03T08:45:04;100749.88;;;-5.03;96.27
64835;BME280;51293;59.296;18.006;2023-02-03T08:47:29;100750.97;;;-4.75;95.78
64835;BME280;51293;59.296;18.006;2023-02-03T08:49:54;100758.50;;;-4.40;94.40
64835;BME280;51293;59.296;18.006;2023-02-03T08:52:20;100756.66;;;-4.09;93.02
64835;BME280;51293;59.296;18.006;2023-02-03T08:54:46;100751.00;;;-3.76;91.33
64835;BME280;51293;59.296;18.006;2023-02-03T08:57:12;100751.28;;;-3.40;89.72
64835;BME280;51293;59.296;18.006;2023-02-03T08:59:39;100752.41;;;-3.14;87.64
64835;BME280;51293;59.296;18.006;2023-02-03T09:02:06;100757.09;;;-2.78;86.42
64835;BME280;51293;59.296;18.006;2023-02-03T09:04:34;100750.50;;;-2.65;84.62
64835;BME280;51293;59.296;18.006;2023-02-03T09:07:00;100748.25;;;-2.32;83.58
64835;BME280;51293;59.296;18.006;2023-02-03T09:09:26;100740.91;;;-1.93;81.66
64835;BME280;51293;59.296;18.006;2023-02-03T09:11:53;100741.16;;;-1.86;80.33
64835;BME280;51293;59.296;18.006;2023-02-03T09:14:24;100737.38;;;-1.48;79.53
64835;BME280;51293;59.296;18.006;2023-02-03T09:16:51;100730.81;;;-1.18;78.33
64835;BME280;51293;59.296;18.006;2023-02-03T09:19:17;100749.63;;;-1.11;77.38
64835;BME280;51293;59.296;18.006;2023-02-03T09:21:42;100746.91;;;-1.20;76.75
64835;BME280;51293;59.296;18.006;2023-02-03T09:24:08;100746.53;;;-1.25;76.65
64835;BME280;51293;59.296;18.006;2023-02-03T09:26:33;100743.34;;;-1.28;76.97
64835;BME280;51293;59.296;18.006;2023-02-03T09:28:59;100754.53;;;-1.60;78.29
64835;BME280;51293;59.296;18.006;2023-02-03T09:31:24;100760.31;;;-1.92;79.41
64835;BME280;51293;59.296;18.006;2023-02-03T09:33:50;100765.25;;;-1.98;80.21
64835;BME280;51293;59.296;18.006;2023-02-03T09:36:15;100773.50;;;-2.28;81.83
64835;BME280;51293;59.296;18.006;2023-02-03T09:38:40;100766.59;;;-2.39;82.49
64835;BME280;51293;59.296;18.006;2023-02-03T09:44:05;100773.22;;;-2.62;84.16
64835;BME280;51293;59.296;18.006;2023-02-03T09:46:36;100777.44;;;-2.69;85.11
64835;BME280;51293;59.296;18.006;2023-02-03T09:49:25;100775.88;;;-2.62;85.52
64835;BME280;51293;59.296;18.006;2023-02-03T09:52:04;100772.56;;;-2.84;86.20
64835;BME280;51293;59.296;18.006;2023-02-03T09:54:53;100774.84;;;-2.89;86.98
64835;BME280;51293;59.296;18.006;2023-02-03T09:57:24;100783.19;;;-2.84;87.41
64835;BME280;51293;59.296;18.006;2023-02-03T09:59:52;100789.59;;;-2.76;87.15
64835;BME280;51293;59.296;18.006;2023-02-03T10:05:30;100796.88;;;-2.41;86.64
64835;BME280;51293;59.296;18.006;2023-02-03T10:11:14;100790.53;;;-1.76;84.07
64835;BME280;51293;59.296;18.006;2023-02-03T10:19:24;100797.94;;;-1.16;81.18
64835;BME280;51293;59.296;18.006;2023-02-03T10:21:57;100802.50;;;-0.91;80.75
64835;BME280;51293;59.296;18.006;2023-02-03T10:24:37;100802.28;;;-0.71;79.98
64835;BME280;51293;59.296;18.006;2023-02-03T10:27:07;100800.97;;;-0.67;79.61
64835;BME280;51293;59.296;18.006;2023-02-03T10:29:41;100804.28;;;-0.47;79.23
64835;BME280;51293;59.296;18.006;2023-02-03T10:32:11;100796.69;;;-0.34;78.74
64835;BME280;51293;59.296;18.006;2023-02-03T10:34:37;100803.00;;;-0.35;78.10
64835;BME280;51293;59.296;18.006;2023-02-03T10:37:24;100802.78;;;-0.16;78.37
64835;BME280;51293;59.296;18.006;2023-02-03T10:39:51;100799.16;;;-0.07;78.04
64835;BME280;51293;59.296;18.006;2023-02-03T10:42:18;100804.69;;;0.08;77.36
64835;BME280;51293;59.296;18.006;2023-02-03T10:44:52;100807.00;;;-0.05;77.60
64835;BME280;51293;59.296;18.006;2023-02-03T10:47:31;100802.25;;;-0.19;78.40
64835;BME280;51293;59.296;18.006;2023-02-03T10:50:06;100801.16;;;-0.01;78.08
64835;BME280;51293;59.296;18.006;2023-02-03T10:52:35;100806.19;;;0.03;77.92
64835;BME280;51293;59.296;18.006;2023-02-03T10:55:05;100800.16;;;-0.08;77.94
64835;BME280;51293;59.296;18.006;2023-02-03T10:57:34;100792.84;;;-0.06;78.11
64835;BME280;51293;59.296;18.006;2023-02-03T11:00:19;100800.13;;;-0.16;77.76
64835;BME280;51293;59.296;18.006;2023-02-03T11:02:54;100803.66;;;-0.07;77.95
64835;BME280;51293;59.296;18.006;2023-02-03T11:05:21;100799.22;;;-0.33;78.83
64835;BME280;51293;59.296;18.006;2023-02-03T11:07:49;100798.00;;;-0.38;79.41
64835;BME280;51293;59.296;18.006;2023-02-03T11:10:39;100801.13;;;-0.43;79.52
64835;BME280;51293;59.296;18.006;2023-02-03T11:13:22;100797.28;;;-0.48;80.09
64835;BME280;51293;59.296;18.006;2023-02-03T11:16:02;100799.16;;;-0.41;80.48
64835;BME280;51293;59.296;18.006;2023-02-03T11:21:21;100802.38;;;-0.29;80.42
64835;BME280;51293;59.296;18.006;2023-02-03T11:24:05;100801.84;;;-0.07;79.48
64835;BME280;51293;59.296;18.006;2023-02-03T11:26:39;100805.88;;;0.06;79.10
64835;BME280;51293;59.296;18.006;2023-02-03T11:29:21;100800.94;;;0.19;78.67
64835;BME280;51293;59.296;18.006;2023-02-03T11:31:50;100808.25;;;0.17;78.61
64835;BME280;51293;59.296;18.006;2023-02-03T11:34:23;100807.72;;;0.13;78.61
64835;BME280;51293;59.296;18.006;2023-02-03T11:36:50;100808.06;;;0.10;78.80
64835;BME280;51293;59.296;18.006;2023-02-03T11:39:19;100813.84;;;0.06;79.06
64835;BME280;51293;59.296;18.006;2023-02-03T11:41:46;100816.25;;;0.17;79.22
64835;BME280;51293;59.296;18.006;2023-02-03T11:44:18;100819.22;;;0.14;78.92
64835;BME280;51293;59.296;18.006;2023-02-03T11:46:50;100817.72;;;0.11;79.18
64835;BME280;51293;59.296;18.006;2023-02-03T11:49:36;100822.56;;;0.24;79.13
64835;BME280;51293;59.296;18.006;2023-02-03T11:52:39;100832.13;;;0.35;78.92
64835;BME280;51293;59.296;18.006;2023-02-03T12:00:37;100830.72;;;0.81;77.08
64835;BME280;51293;59.296;18.006;2023-02-03T12:08:35;100845.72;;;1.31;75.44
64835;BME280;51293;59.296;18.006;2023-02-03T12:11:28;100841.56;;;1.28;75.59
64835;BME280;51293;59.296;18.006;2023-02-03T12:19:14;100858.41;;;1.29;74.10
64835;BME280;51293;59.296;18.006;2023-02-03T12:21:46;100870.06;;;0.87;75.38
64835;BME280;51293;59.296;18.006;2023-02-03T12:27:01;100882.25;;;0.39;76.84
64835;BME280;51293;59.296;18.006;2023-02-03T12:29:34;100886.34;;;0.60;76.75
64835;BME280;51293;59.296;18.006;2023-02-03T12:32:27;100893.53;;;0.67;76.22
64835;BME280;51293;59.296;18.006;2023-02-03T12:37:54;100900.25;;;0.37;76.69
64835;BME280;51293;59.296;18.006;2023-02-03T12:40:28;100898.53;;;0.28;77.40
64835;BME280;51293;59.296;18.006;2023-02-03T12:43:14;100902.75;;;0.05;77.99
64835;BME280;51293;59.296;18.006;2023-02-03T12:45:48;100911.50;;;-0.03;78.83
64835;BME280;51293;59.296;18.006;2023-02-03T12:48:19;100915.88;;;-0.46;80.32
64835;BME280;51293;59.296;18.006;2023-02-03T12:50:50;100912.00;;;-0.51;80.85
64835;BME280;51293;59.296;18.006;2023-02-03T12:53:19;100927.63;;;-0.57;81.01
64835;BME280;51293;59.296;18.006;2023-02-03T12:56:02;100929.88;;;-0.62;81.77
64835;BME280;51293;59.296;18.006;2023-02-03T12:58:49;100932.94;;;-0.74;82.14
64835;BME280;51293;59.296;18.006;2023-02-03T13:01:22;100941.75;;;-0.74;82.40
64835;BME280;51293;59.296;18.006;2023-02-03T13:04:55;100951.03;;;-0.78;82.92
64835;BME280;51293;59.296;18.006;2023-02-03T13:07:09;100966.66;;;-0.93;82.69
64835;BME280;51293;59.296;18.006;2023-02-03T13:09:40;100984.28;;;-0.92;83.02
64835;BME280;51293;59.296;18.006;2023-02-03T13:15:19;100992.97;;;-0.90;83.16
64835;BME280;51293;59.296;18.006;2023-02-03T13:17:53;100996.66;;;-1.00;82.94
64835;BME280;51293;59.296;18.006;2023-02-03T13:20:23;101006.50;;;-1.10;83.51
64835;BME280;51293;59.296;18.006;2023-02-03T13:22:49;101020.78;;;-1.11;82.89
64835;BME280;51293;59.296;18.006;2023-02-03T13:30:57;101028.97;;;-1.23;82.26
64835;BME280;51293;59.296;18.006;2023-02-03T13:36:25;101034.19;;;-1.31;83.08
64835;BME280;51293;59.296;18.006;2023-02-03T13:39:14;101036.13;;;-1.33;83.31
64835;BME280;51293;59.296;18.006;2023-02-03T13:41:53;101051.22;;;-1.33;82.92
64835;BME280;51293;59.296;18.006;2023-02-03T13:44:25;101050.69;;;-1.37;82.26
64835;BME280;51293;59.296;18.006;2023-02-03T13:46:56;101064.13;;;-1.38;82.59
64835;BME280;51293;59.296;18.006;2023-02-03T13:49:33;101071.16;;;-1.47;82.50
64835;BME280;51293;59.296;18.006;2023-02-03T13:52:00;101083.16;;;-1.43;82.27
64835;BME280;51293;59.296;18.006;2023-02-03T13:54:33;101081.94;;;-1.49;81.93
64835;BME280;51293;59.296;18.006;2023-02-03T13:57:05;101088.78;;;-1.46;81.82
64835;BME280;51293;59.296;18.006;2023-02-03T13:59:43;101090.59;;;-1.47;82.04
64835;BME280;51293;59.296;18.006;2023-02-03T14:07:38;101106.25;;;-1.53;82.68
64835;BME280;51293;59.296;18.006;2023-02-03T14:15:28;101113.13;;;-1.70;83.65
64835;BME280;51293;59.296;18.006;2023-02-03T14:18:03;101117.63;;;-1.71;83.99
64835;BME280;51293;59.296;18.006;2023-02-03T14:20:36;101117.19;;;-1.76;84.41
64835;BME280;51293;59.296;18.006;2023-02-03T14:26:17;101127.28;;;-1.79;85.35
64835;BME280;51293;59.296;18.006;2023-02-03T14:28:20;101132.00;;;-1.83;85.93
64835;BME280;51293;59.296;18.006;2023-02-03T14:36:46;101154.53;;;-1.87;84.88